Time;durP1;ratioP1;P1;durP2;ratioP2;P2;SDS_P1;SDS_P2;PMS_P1;PMS_P2;Temp;Humidity;BMP_temperature;BMP_pressure;BME280_temperature;BME280_humidity;BME280_pressure;Samples;Min_cycle;Max_cycle;Signal;HPM_P1;HPM_P2
2023/09/03 00:00:55;;;;;;;25.65;11.60;;;;;;;;;;4967340;28;20482;-76
2023/09/03 00:03:22;;;;;;;27.98;10.82;;;;;;;;;;5017126;28;20945;-75
2023/09/03 00:05:50;;;;;;;28.90;10.30;;;;;;;;;;4989100;28;20429;-74
2023/09/03 00:08:17;;;;;;;29.27;11.50;;;;;;;;;;4992189;28;20791;-76
2023/09/03 00:10:48;;;;;;;27.15;10.85;;;;;;;;;;5017528;28;20451;-75
2023/09/03 00:13:15;;;;;;;25.77;10.65;;;;;;;;;;5010128;28;20430;-75
2023/09/03 00:15:43;;;;;;;28.88;10.75;;;;;;;;;;4983144;28;20414;-75
2023/09/03 00:18:11;;;;;;;28.50;10.77;;;;;;;;;;4991383;28;20428;-75
2023/09/03 00:20:41;;;;;;;27.75;10.70;;;;;;;;;;5007846;28;20426;-75
2023/09/03 00:23:08;;;;;;;25.02;10.00;;;;;;;;;;4991922;28;20422;-75
2023/09/03 00:25:35;;;;;;;27.15;10.05;;;;;;;;;;5009812;28;20426;-75
2023/09/03 00:28:02;;;;;;;27.63;10.90;;;;;;;;;;4988087;28;20433;-75
2023/09/03 00:30:29;;;;;;;26.20;9.85;;;;;;;;;;4994197;28;20505;-75
2023/09/03 00:32:57;;;;;;;26.40;10.10;;;;;;;;;;4990782;28;20933;-76
2023/09/03 00:35:23;;;;;;;28.95;10.15;;;;;;;;;;4990151;28;20412;-75
2023/09/03 00:37:50;;;;;;;26.55;10.63;;;;;;;;;;5008403;28;20871;-75
2023/09/03 00:40:17;;;;;;;30.17;11.95;;;;;;;;;;4974236;28;20431;-74
2023/09/03 00:42:43;;;;;;;29.50;11.10;;;;;;;;;;4993825;28;20433;-75
2023/09/03 00:45:11;;;;;;;32.38;12.93;;;;;;;;;;4992792;28;20811;-76
2023/09/03 00:47:38;;;;;;;31.88;12.45;;;;;;;;;;4970813;28;20475;-76
2023/09/03 00:50:07;;;;;;;31.30;11.95;;;;;;;;;;5005448;28;20439;-75
2023/09/03 00:52:34;;;;;;;30.17;11.90;;;;;;;;;;4987099;28;20404;-75
2023/09/03 00:55:01;;;;;;;36.85;12.45;;;;;;;;;;4989768;28;20439;-75
2023/09/03 00:57:28;;;;;;;31.92;12.05;;;;;;;;;;4982033;28;20774;-76
2023/09/03 00:59:56;;;;;;;29.65;13.10;;;;;;;;;;5009506;28;20465;-75
2023/09/03 01:02:24;;;;;;;31.77;12.10;;;;;;;;;;4992738;28;21037;-76
2023/09/03 01:04:51;;;;;;;29.52;12.77;;;;;;;;;;4983301;28;20434;-75
2023/09/03 01:07:19;;;;;;;32.47;13.35;;;;;;;;;;4977207;28;20418;-75
2023/09/03 01:09:46;;;;;;;31.90;11.77;;;;;;;;;;4993793;28;20518;-75
2023/09/03 01:12:15;;;;;;;30.90;12.60;;;;;;;;;;4993286;28;20953;-75
2023/09/03 01:14:48;;;;;;;32.50;13.27;;;;;;;;;;5015686;28;20406;-75
2023/09/03 01:17:16;;;;;;;29.80;12.00;;;;;;;;;;4989674;28;20430;-75
2023/09/03 01:19:56;;;;;;;28.67;11.02;;;;;;;;;;5020716;28;20502;-76
2023/09/03 01:22:31;;;;;;;31.00;12.20;;;;;;;;;;4978564;28;20440;-76
2023/09/03 01:25:08;;;;;;;30.33;12.93;;;;;;;;;;5023556;28;20434;-76
2023/09/03 01:27:36;;;;;;;32.37;13.13;;;;;;;;;;5006395;28;21059;-75
2023/09/03 01:30:05;;;;;;;29.55;12.02;;;;;;;;;;4992879;28;20422;-76
2023/09/03 01:32:32;;;;;;;32.47;12.60;;;;;;;;;;5012879;28;20439;-76
2023/09/03 01:34:59;;;;;;;34.60;12.00;;;;;;;;;;4989475;28;20499;-76
2023/09/03 01:37:27;;;;;;;32.85;11.98;;;;;;;;;;4991195;28;20429;-78
2023/09/03 01:39:53;;;;;;;33.07;12.40;;;;;;;;;;4978357;28;20514;-77
2023/09/03 01:42:21;;;;;;;33.25;12.50;;;;;;;;;;4986231;28;20406;-75
2023/09/03 01:44:48;;;;;;;30.77;11.70;;;;;;;;;;4982012;28;20833;-75
2023/09/03 01:47:21;;;;;;;30.52;12.35;;;;;;;;;;4976625;28;20420;-75
2023/09/03 01:49:53;;;;;;;30.50;12.40;;;;;;;;;;4975049;28;20489;-76
2023/09/03 01:52:26;;;;;;;31.73;13.10;;;;;;;;;;4992238;28;20555;-76
2023/09/03 01:54:55;;;;;;;32.13;12.50;;;;;;;;;;5013334;28;20414;-75
2023/09/03 01:57:25;;;;;;;34.03;13.90;;;;;;;;;;4982550;28;20442;-76
2023/09/03 01:59:53;;;;;;;35.50;13.47;;;;;;;;;;5013177;28;20411;-75
2023/09/03 02:02:22;;;;;;;38.13;15.15;;;;;;;;;;4991963;28;20831;-75
2023/09/03 02:04:49;;;;;;;37.55;13.80;;;;;;;;;;5015779;28;20840;-76
2023/09/03 02:07:16;;;;;;;37.08;14.85;;;;;;;;;;4990216;28;20465;-72
2023/09/03 02:09:42;;;;;;;37.47;14.40;;;;;;;;;;4982859;28;20422;-76
2023/09/03 02:12:09;;;;;;;34.83;14.02;;;;;;;;;;4990287;28;20422;-76
2023/09/03 02:14:36;;;;;;;35.90;12.97;;;;;;;;;;4986887;28;20444;-76
2023/09/03 02:17:03;;;;;;;33.33;13.67;;;;;;;;;;4969771;28;20499;-75
2023/09/03 02:19:31;;;;;;;34.22;13.50;;;;;;;;;;5003037;28;20416;-75
2023/09/03 02:21:57;;;;;;;34.30;13.75;;;;;;;;;;4991065;28;20471;-74
2023/09/03 02:24:24;;;;;;;34.28;13.60;;;;;;;;;;4979293;28;20909;-77
2023/09/03 02:26:51;;;;;;;32.88;13.40;;;;;;;;;;4990179;28;20460;-75
2023/09/03 02:29:18;;;;;;;34.22;13.45;;;;;;;;;;4996253;28;20966;-76
2023/09/03 02:31:45;;;;;;;34.40;12.93;;;;;;;;;;4989598;28;20430;-75
2023/09/03 02:34:11;;;;;;;32.80;12.77;;;;;;;;;;4990667;28;20925;-76
2023/09/03 02:36:39;;;;;;;34.23;12.80;;;;;;;;;;4967248;28;20431;-77
2023/09/03 02:39:06;;;;;;;35.00;14.03;;;;;;;;;;4984630;28;20469;-77
2023/09/03 02:41:33;;;;;;;35.13;13.50;;;;;;;;;;5012012;28;20432;-77
2023/09/03 02:44:01;;;;;;;33.50;14.07;;;;;;;;;;5004182;28;20442;-75
2023/09/03 02:46:28;;;;;;;35.58;12.50;;;;;;;;;;5004078;28;20781;-77
2023/09/03 02:48:54;;;;;;;36.13;14.25;;;;;;;;;;4982568;28;20435;-76
2023/09/03 02:51:22;;;;;;;37.47;15.10;;;;;;;;;;4982103;28;20416;-73
2023/09/03 02:53:51;;;;;;;32.80;12.80;;;;;;;;;;4981034;28;20433;-74
2023/09/03 02:56:17;;;;;;;34.17;13.80;;;;;;;;;;4993395;28;20417;-77
2023/09/03 02:58:46;;;;;;;35.38;13.90;;;;;;;;;;4984945;28;20431;-75
2023/09/03 03:01:14;;;;;;;33.45;13.18;;;;;;;;;;4975150;28;20452;-75
2023/09/03 03:03:41;;;;;;;34.58;12.60;;;;;;;;;;4995504;28;20939;-73
2023/09/03 03:06:08;;;;;;;33.25;12.75;;;;;;;;;;4970529;28;20424;-76
2023/09/03 03:08:35;;;;;;;30.90;13.20;;;;;;;;;;4983075;28;20427;-75
2023/09/03 03:11:07;;;;;;;34.53;13.00;;;;;;;;;;5030258;28;20440;-76
2023/09/03 03:13:34;;;;;;;33.08;14.57;;;;;;;;;;5001236;28;20780;-75
2023/09/03 03:16:05;;;;;;;36.55;13.80;;;;;;;;;;4989101;28;20411;-76
2023/09/03 03:18:34;;;;;;;36.38;13.20;;;;;;;;;;4990437;28;20437;-76
2023/09/03 03:21:05;;;;;;;35.72;13.52;;;;;;;;;;4988554;28;20473;-77
2023/09/03 03:23:33;;;;;;;37.17;13.90;;;;;;;;;;4971160;28;20425;-75
2023/09/03 03:26:00;;;;;;;33.45;13.65;;;;;;;;;;4989775;28;20424;-76
2023/09/03 03:28:30;;;;;;;32.90;12.25;;;;;;;;;;4988436;28;20470;-74
2023/09/03 03:30:58;;;;;;;37.45;15.48;;;;;;;;;;5004782;28;20942;-76
2023/09/03 03:33:26;;;;;;;40.38;15.18;;;;;;;;;;5018282;28;20910;-76
2023/09/03 03:35:53;;;;;;;37.25;14.48;;;;;;;;;;5019839;28;20421;-76
2023/09/03 03:38:20;;;;;;;39.83;15.60;;;;;;;;;;4997011;28;20442;-74
2023/09/03 03:40:47;;;;;;;38.78;14.27;;;;;;;;;;4985747;28;20846;-76
2023/09/03 03:43:14;;;;;;;35.05;14.48;;;;;;;;;;4991158;28;20825;-75
2023/09/03 03:45:42;;;;;;;37.55;16.05;;;;;;;;;;5020462;28;20604;-75
2023/09/03 03:48:09;;;;;;;40.45;14.85;;;;;;;;;;5002396;28;20450;-76
2023/09/03 03:50:36;;;;;;;43.38;17.20;;;;;;;;;;5004588;28;20432;-74
2023/09/03 03:53:02;;;;;;;38.78;14.98;;;;;;;;;;5020983;28;20815;-76
2023/09/03 03:55:29;;;;;;;41.20;15.93;;;;;;;;;;4994030;28;20469;-76
2023/09/03 03:57:56;;;;;;;37.83;15.38;;;;;;;;;;4988210;28;20431;-76
2023/09/03 04:00:23;;;;;;;38.27;15.23;;;;;;;;;;4980407;28;20545;-73
2023/09/03 04:02:51;;;;;;;38.97;15.05;;;;;;;;;;5008298;28;20435;-73
2023/09/03 04:05:17;;;;;;;38.78;14.60;;;;;;;;;;4994633;28;20500;-76
2023/09/03 04:07:44;;;;;;;34.80;13.75;;;;;;;;;;4995076;28;20435;-73
2023/09/03 04:10:11;;;;;;;37.60;15.13;;;;;;;;;;4987477;28;20820;-75
2023/09/03 04:12:39;;;;;;;36.80;14.40;;;;;;;;;;5016430;28;20511;-75
2023/09/03 04:15:07;;;;;;;38.88;15.45;;;;;;;;;;4993574;28;20484;-76
2023/09/03 04:17:33;;;;;;;39.90;15.02;;;;;;;;;;4986725;28;20424;-74
2023/09/03 04:20:02;;;;;;;34.38;14.15;;;;;;;;;;4994208;28;20489;-75
2023/09/03 04:22:30;;;;;;;36.33;13.65;;;;;;;;;;4993136;28;20416;-77
2023/09/03 04:24:57;;;;;;;35.33;13.30;;;;;;;;;;4986630;28;20516;-76
2023/09/03 04:27:24;;;;;;;37.67;14.32;;;;;;;;;;4994937;28;20471;-76
2023/09/03 04:29:51;;;;;;;36.08;14.73;;;;;;;;;;4987868;28;20428;-73
2023/09/03 04:32:18;;;;;;;37.92;15.32;;;;;;;;;;4984261;28;20475;-76
2023/09/03 04:34:45;;;;;;;37.10;14.82;;;;;;;;;;4976507;28;20426;-76
2023/09/03 04:37:13;;;;;;;36.83;14.40;;;;;;;;;;4990711;28;20495;-75
2023/09/03 04:39:39;;;;;;;38.42;15.13;;;;;;;;;;4992699;28;20414;-75
2023/09/03 04:42:07;;;;;;;40.05;15.05;;;;;;;;;;4983403;28;20920;-75
2023/09/03 04:44:37;;;;;;;35.80;15.00;;;;;;;;;;4971790;28;20428;-73
2023/09/03 04:47:05;;;;;;;38.78;14.55;;;;;;;;;;4992901;28;20466;-76
2023/09/03 04:49:33;;;;;;;38.95;13.80;;;;;;;;;;4992437;28;20784;-75
2023/09/03 04:51:59;;;;;;;40.05;14.23;;;;;;;;;;4976732;28;20501;-75
2023/09/03 04:54:28;;;;;;;36.53;14.50;;;;;;;;;;5002404;28;20428;-75
2023/09/03 04:56:54;;;;;;;37.72;14.32;;;;;;;;;;4982978;28;20433;-75
2023/09/03 04:59:21;;;;;;;39.67;14.45;;;;;;;;;;4981561;28;20410;-75
2023/09/03 05:01:48;;;;;;;41.33;15.40;;;;;;;;;;4986309;28;20420;-75
2023/09/03 05:04:14;;;;;;;36.97;14.73;;;;;;;;;;4992533;28;20430;-75
2023/09/03 05:06:41;;;;;;;37.80;14.52;;;;;;;;;;4989811;28;20428;-75
2023/09/03 05:09:09;;;;;;;42.33;15.50;;;;;;;;;;5015355;28;20426;-76
2023/09/03 05:11:39;;;;;;;43.10;16.00;;;;;;;;;;5002923;28;20457;-76
2023/09/03 05:14:06;;;;;;;41.13;16.10;;;;;;;;;;4965404;28;20474;-75
2023/09/03 05:16:33;;;;;;;36.28;14.70;;;;;;;;;;4991119;28;20426;-72
2023/09/03 05:19:04;;;;;;;37.35;15.32;;;;;;;;;;4981270;28;20451;-77
2023/09/03 05:21:32;;;;;;;37.10;14.52;;;;;;;;;;4981418;28;20469;-77
2023/09/03 05:23:59;;;;;;;43.58;15.75;;;;;;;;;;5018026;28;20422;-76
2023/09/03 05:26:26;;;;;;;36.38;15.55;;;;;;;;;;4983545;28;20422;-75
2023/09/03 05:28:54;;;;;;;41.22;15.88;;;;;;;;;;4985636;28;20755;-75
2023/09/03 05:31:21;;;;;;;42.35;16.42;;;;;;;;;;5019080;28;20435;-75
2023/09/03 05:33:48;;;;;;;41.58;15.13;;;;;;;;;;5001243;28;20433;-75
2023/09/03 05:36:14;;;;;;;42.92;16.85;;;;;;;;;;4984647;28;20426;-75
2023/09/03 05:38:42;;;;;;;45.33;15.77;;;;;;;;;;4988766;28;20411;-76
2023/09/03 05:41:10;;;;;;;43.30;16.35;;;;;;;;;;4986723;28;20430;-76
2023/09/03 05:43:37;;;;;;;44.03;15.95;;;;;;;;;;4983686;28;20507;-75
2023/09/03 05:46:05;;;;;;;42.42;16.90;;;;;;;;;;4998110;28;20522;-76
2023/09/03 05:48:33;;;;;;;43.47;16.02;;;;;;;;;;4987033;28;20785;-75
2023/09/03 05:51:03;;;;;;;46.10;16.88;;;;;;;;;;5002093;28;20422;-75
2023/09/03 05:53:33;;;;;;;42.08;16.40;;;;;;;;;;5015024;28;20510;-74
2023/09/03 05:56:03;;;;;;;39.92;15.95;;;;;;;;;;4988809;28;20936;-75
2023/09/03 05:58:30;;;;;;;43.58;16.92;;;;;;;;;;4990402;28;20546;-75
2023/09/03 06:00:58;;;;;;;41.13;15.80;;;;;;;;;;4990174;28;20416;-76
2023/09/03 06:03:27;;;;;;;45.33;17.08;;;;;;;;;;5016873;28;20522;-76
2023/09/03 06:05:54;;;;;;;41.60;15.95;;;;;;;;;;4994487;28;20514;-74
2023/09/03 06:08:20;;;;;;;37.97;15.60;;;;;;;;;;4964194;28;20523;-74
2023/09/03 06:10:47;;;;;;;43.55;17.63;;;;;;;;;;4989023;28;20432;-75
2023/09/03 06:13:14;;;;;;;43.30;17.05;;;;;;;;;;4988870;28;20539;-74
2023/09/03 06:15:41;;;;;;;42.55;16.77;;;;;;;;;;4981348;28;20460;-76
2023/09/03 06:18:07;;;;;;;39.88;16.50;;;;;;;;;;4979776;28;21046;-75
2023/09/03 06:20:37;;;;;;;42.55;17.05;;;;;;;;;;4987418;28;20420;-75
2023/09/03 06:23:04;;;;;;;39.00;16.08;;;;;;;;;;4983614;28;20418;-76
2023/09/03 06:25:30;;;;;;;39.23;15.67;;;;;;;;;;4985205;28;20459;-75
2023/09/03 06:27:57;;;;;;;39.70;16.20;;;;;;;;;;5012505;28;20905;-75
2023/09/03 06:30:24;;;;;;;36.17;15.38;;;;;;;;;;5012216;28;20430;-76
2023/09/03 06:32:51;;;;;;;36.80;15.57;;;;;;;;;;4998003;28;20474;-76
2023/09/03 06:35:17;;;;;;;35.83;15.60;;;;;;;;;;5001323;28;20422;-75
2023/09/03 06:37:45;;;;;;;37.77;14.87;;;;;;;;;;5013271;28;20522;-75
2023/09/03 06:40:14;;;;;;;35.57;14.90;;;;;;;;;;4981037;28;20502;-75
2023/09/03 06:42:41;;;;;;;35.95;14.73;;;;;;;;;;4966548;28;20472;-74
2023/09/03 06:45:08;;;;;;;38.15;15.20;;;;;;;;;;4988790;28;20414;-74
2023/09/03 06:47:35;;;;;;;32.37;13.70;;;;;;;;;;4979367;28;20482;-76
2023/09/03 06:50:02;;;;;;;32.95;14.10;;;;;;;;;;4989662;28;20430;-75
2023/09/03 06:52:28;;;;;;;34.50;14.35;;;;;;;;;;4982990;28;20448;-74
2023/09/03 06:54:56;;;;;;;33.63;13.35;;;;;;;;;;4978984;28;20446;-76
2023/09/03 06:57:24;;;;;;;33.38;13.82;;;;;;;;;;4979400;28;20949;-75
2023/09/03 06:59:55;;;;;;;32.70;13.33;;;;;;;;;;4979366;28;20415;-76
2023/09/03 07:02:22;;;;;;;31.50;14.20;;;;;;;;;;4987456;28;20467;-75
2023/09/03 07:04:49;;;;;;;33.13;14.25;;;;;;;;;;4979737;28;20411;-75
2023/09/03 07:07:16;;;;;;;33.30;14.10;;;;;;;;;;4983094;28;20473;-76
2023/09/03 07:09:42;;;;;;;35.15;14.95;;;;;;;;;;4980186;28;20968;-76
2023/09/03 07:12:10;;;;;;;34.30;15.10;;;;;;;;;;4979531;28;20434;-75
2023/09/03 07:14:37;;;;;;;32.50;13.60;;;;;;;;;;4983345;28;20448;-76
2023/09/03 07:17:04;;;;;;;29.85;12.80;;;;;;;;;;4987665;28;20928;-75
2023/09/03 07:19:30;;;;;;;32.03;12.43;;;;;;;;;;4984323;28;20419;-75
2023/09/03 07:21:57;;;;;;;32.05;12.25;;;;;;;;;;4977933;28;20429;-75
2023/09/03 07:24:24;;;;;;;30.73;12.80;;;;;;;;;;4981079;28;20426;-75
2023/09/03 07:26:50;;;;;;;28.95;12.15;;;;;;;;;;4983393;28;20836;-75
2023/09/03 07:29:19;;;;;;;29.35;11.95;;;;;;;;;;4981094;28;20407;-76
2023/09/03 07:31:46;;;;;;;29.73;13.38;;;;;;;;;;5003313;28;20426;-77
2023/09/03 07:34:13;;;;;;;30.17;11.80;;;;;;;;;;4986953;28;20411;-75
2023/09/03 07:36:42;;;;;;;28.48;12.25;;;;;;;;;;4982242;28;20498;-75
2023/09/03 07:39:11;;;;;;;27.92;11.65;;;;;;;;;;4978412;28;20932;-77
2023/09/03 07:41:38;;;;;;;27.43;11.00;;;;;;;;;;4970564;28;20457;-75
2023/09/03 07:44:05;;;;;;;27.17;11.10;;;;;;;;;;4986536;28;20415;-76
2023/09/03 07:46:33;;;;;;;27.58;11.07;;;;;;;;;;4982788;28;20441;-76
2023/09/03 07:49:00;;;;;;;26.65;10.40;;;;;;;;;;5013252;28;20421;-75
2023/09/03 07:51:27;;;;;;;24.45;9.95;;;;;;;;;;5010292;28;20460;-75
2023/09/03 07:53:54;;;;;;;26.10;10.25;;;;;;;;;;4985540;28;20468;-76
2023/09/03 07:56:20;;;;;;;26.92;10.23;;;;;;;;;;5003743;28;20420;-75
2023/09/03 07:58:47;;;;;;;25.30;9.05;;;;;;;;;;4982962;28;20418;-75
2023/09/03 08:01:16;;;;;;;23.67;9.25;;;;;;;;;;4985898;28;20818;-77
2023/09/03 08:03:44;;;;;;;23.65;9.50;;;;;;;;;;4982831;28;20424;-76
2023/09/03 08:06:13;;;;;;;22.52;9.13;;;;;;;;;;4978715;28;20435;-76
2023/09/03 08:08:40;;;;;;;23.67;8.73;;;;;;;;;;4993329;28;20818;-76
2023/09/03 08:11:06;;;;;;;24.25;9.70;;;;;;;;;;4988536;28;20429;-75
2023/09/03 08:13:33;;;;;;;24.00;8.90;;;;;;;;;;4993164;28;20520;-77
2023/09/03 08:16:02;;;;;;;24.42;9.07;;;;;;;;;;4982548;28;20438;-75
2023/09/03 08:18:28;;;;;;;25.40;10.27;;;;;;;;;;5014459;28;20468;-76
2023/09/03 08:20:57;;;;;;;23.83;8.75;;;;;;;;;;5018780;28;20476;-76
2023/09/03 08:23:24;;;;;;;25.10;10.25;;;;;;;;;;4986191;28;20818;-76
2023/09/03 08:25:50;;;;;;;24.70;9.00;;;;;;;;;;4997167;28;20421;-75
2023/09/03 08:28:17;;;;;;;23.95;9.40;;;;;;;;;;4979088;28;20418;-76
2023/09/03 08:30:44;;;;;;;22.95;8.70;;;;;;;;;;4985143;28;20442;-75
2023/09/03 08:33:10;;;;;;;22.67;8.30;;;;;;;;;;4982340;28;20842;-75
2023/09/03 08:35:37;;;;;;;24.25;9.30;;;;;;;;;;4985785;28;20424;-76
2023/09/03 08:38:05;;;;;;;27.20;9.50;;;;;;;;;;4991397;28;20418;-77
2023/09/03 08:40:33;;;;;;;23.88;8.82;;;;;;;;;;5016704;28;20416;-75
2023/09/03 08:43:02;;;;;;;25.97;9.73;;;;;;;;;;4986457;28;20403;-77
2023/09/03 08:45:31;;;;;;;25.77;10.20;;;;;;;;;;4977403;28;20424;-75
2023/09/03 08:47:57;;;;;;;25.77;9.88;;;;;;;;;;4985816;28;20420;-75
2023/09/03 08:50:24;;;;;;;24.90;9.70;;;;;;;;;;4983549;28;20781;-75
2023/09/03 08:52:52;;;;;;;27.20;9.90;;;;;;;;;;4982029;28;20505;-75
2023/09/03 08:55:21;;;;;;;24.00;9.27;;;;;;;;;;4989561;28;20459;-76
2023/09/03 08:57:47;;;;;;;24.30;9.38;;;;;;;;;;4984356;28;20415;-76
2023/09/03 09:00:14;;;;;;;24.00;9.35;;;;;;;;;;4980402;28;20442;-77
2023/09/03 09:02:42;;;;;;;24.63;9.60;;;;;;;;;;4985873;28;20421;-78
2023/09/03 09:05:09;;;;;;;25.25;9.75;;;;;;;;;;4980906;28;20427;-75
2023/09/03 09:07:36;;;;;;;26.77;9.60;;;;;;;;;;4981623;28;20869;-75
2023/09/03 09:10:06;;;;;;;23.90;9.75;;;;;;;;;;4983816;28;20432;-76
2023/09/03 09:12:41;;;;;;;23.25;8.82;;;;;;;;;;4985772;28;20432;-76
2023/09/03 09:15:08;;;;;;;25.40;9.40;;;;;;;;;;5001571;28;20421;-76
2023/09/03 09:17:37;;;;;;;22.90;8.38;;;;;;;;;;4984215;28;20745;-76
2023/09/03 09:20:04;;;;;;;24.38;8.90;;;;;;;;;;4998049;28;20438;-75
2023/09/03 09:22:35;;;;;;;23.73;8.85;;;;;;;;;;4985871;28;20476;-76
2023/09/03 09:25:02;;;;;;;23.52;8.48;;;;;;;;;;4987731;28;20424;-78
2023/09/03 09:27:29;;;;;;;23.30;8.53;;;;;;;;;;4990125;28;20823;-75
2023/09/03 09:30:07;;;;;;;26.00;9.02;;;;;;;;;;4987802;28;20944;-73
2023/09/03 09:32:34;;;;;;;23.73;8.67;;;;;;;;;;4983242;28;20432;-77
2023/09/03 09:35:01;;;;;;;24.00;9.32;;;;;;;;;;4988114;28;20430;-76
2023/09/03 09:37:35;;;;;;;24.33;9.30;;;;;;;;;;4974764;28;20423;-75
2023/09/03 09:40:04;;;;;;;23.17;8.85;;;;;;;;;;4995992;28;20483;-76
2023/09/03 09:42:30;;;;;;;23.98;9.65;;;;;;;;;;4990410;28;20407;-75
2023/09/03 09:44:59;;;;;;;23.90;9.40;;;;;;;;;;4979023;28;20410;-76
2023/09/03 09:47:27;;;;;;;22.42;7.90;;;;;;;;;;5003821;28;20530;-77
2023/09/03 09:49:54;;;;;;;22.30;8.07;;;;;;;;;;4984986;28;20816;-75
2023/09/03 09:52:20;;;;;;;23.80;8.77;;;;;;;;;;4983588;28;20455;-76
2023/09/03 09:54:48;;;;;;;24.40;8.60;;;;;;;;;;4979854;28;20828;-76
2023/09/03 09:57:16;;;;;;;23.92;7.97;;;;;;;;;;4985600;28;20406;-76
2023/09/03 09:59:43;;;;;;;22.65;7.82;;;;;;;;;;4973522;28;20429;-77
2023/09/03 10:02:14;;;;;;;21.80;7.63;;;;;;;;;;4991154;28;20489;-77
2023/09/03 10:04:42;;;;;;;22.83;7.45;;;;;;;;;;4996460;28;20430;-76
2023/09/03 10:07:08;;;;;;;22.15;7.45;;;;;;;;;;4984345;28;20787;-76
2023/09/03 10:09:35;;;;;;;19.52;6.35;;;;;;;;;;4988539;28;20419;-76
2023/09/03 10:12:02;;;;;;;19.15;5.88;;;;;;;;;;4987105;28;20457;-79
2023/09/03 10:14:29;;;;;;;19.90;6.30;;;;;;;;;;4985428;28;20493;-76
2023/09/03 10:16:58;;;;;;;18.13;4.97;;;;;;;;;;4983356;28;20414;-76
2023/09/03 10:19:27;;;;;;;18.48;5.20;;;;;;;;;;4990055;28;20772;-76
2023/09/03 10:21:55;;;;;;;19.87;6.43;;;;;;;;;;5012703;28;20417;-76
2023/09/03 10:24:23;;;;;;;18.48;5.63;;;;;;;;;;4977917;28;20418;-74
2023/09/03 10:26:52;;;;;;;18.55;5.25;;;;;;;;;;4990589;28;21449;-74
2023/09/03 10:29:20;;;;;;;20.70;6.00;;;;;;;;;;4984441;28;20418;-77
2023/09/03 10:31:47;;;;;;;19.13;5.35;;;;;;;;;;4999850;28;20517;-76
2023/09/03 10:34:15;;;;;;;18.83;5.50;;;;;;;;;;5010467;28;20435;-76
2023/09/03 10:36:56;;;;;;;17.25;4.65;;;;;;;;;;4985628;28;20422;-79
2023/09/03 10:39:24;;;;;;;18.10;5.13;;;;;;;;;;4983945;28;20422;-77
2023/09/03 10:42:06;;;;;;;18.80;5.03;;;;;;;;;;4983505;28;20487;-76
2023/09/03 10:44:32;;;;;;;17.10;4.35;;;;;;;;;;4982083;28;20418;-76
2023/09/03 10:46:59;;;;;;;17.20;4.68;;;;;;;;;;4981065;28;20427;-77
2023/09/03 10:49:39;;;;;;;18.98;4.55;;;;;;;;;;4986272;28;20414;-75
2023/09/03 10:52:20;;;;;;;16.23;3.50;;;;;;;;;;4987058;28;20432;-76
2023/09/03 10:55:02;;;;;;;16.75;3.00;;;;;;;;;;4990092;28;20412;-77
2023/09/03 10:57:31;;;;;;;15.10;2.90;;;;;;;;;;4982895;28;20434;-78
2023/09/03 11:00:11;;;;;;;17.38;3.30;;;;;;;;;;4981562;28;20550;-76
2023/09/03 11:02:39;;;;;;;15.55;3.10;;;;;;;;;;4976802;28;20416;-76
2023/09/03 11:05:16;;;;;;;15.80;3.38;;;;;;;;;;4987827;28;20509;-77
2023/09/03 11:07:43;;;;;;;15.00;2.90;;;;;;;;;;4982838;28;20423;-76
2023/09/03 11:10:37;;;;;;;16.38;3.42;;;;;;;;;;4981386;28;20411;-76
2023/09/03 11:13:08;;;;;;;16.30;3.35;;;;;;;;;;4981629;28;20524;-75
2023/09/03 11:15:47;;;;;;;15.20;2.70;;;;;;;;;;4988148;28;20911;-75
2023/09/03 11:18:16;;;;;;;15.25;3.28;;;;;;;;;;4987402;28;20409;-77
2023/09/03 11:20:43;;;;;;;14.80;2.70;;;;;;;;;;4978994;28;20482;-76
2023/09/03 11:23:17;;;;;;;14.60;2.25;;;;;;;;;;4980724;28;20409;-76
2023/09/03 11:25:44;;;;;;;14.10;1.90;;;;;;;;;;4978316;28;20424;-76
2023/09/03 11:28:12;;;;;;;14.52;2.30;;;;;;;;;;4977591;28;20439;-76
2023/09/03 11:30:40;;;;;;;15.25;2.70;;;;;;;;;;4989326;28;21076;-76
2023/09/03 11:33:10;;;;;;;15.40;2.43;;;;;;;;;;4982987;28;20426;-78
2023/09/03 11:35:42;;;;;;;15.88;2.55;;;;;;;;;;4988446;28;20863;-76
2023/09/03 11:38:09;;;;;;;14.60;2.33;;;;;;;;;;5012753;28;20844;-76
2023/09/03 11:40:35;;;;;;;14.75;2.38;;;;;;;;;;4979104;28;20471;-76
2023/09/03 11:43:02;;;;;;;14.90;2.47;;;;;;;;;;4985280;28;20899;-78
2023/09/03 11:45:33;;;;;;;15.38;2.53;;;;;;;;;;4987283;28;20418;-78
2023/09/03 11:48:00;;;;;;;14.82;2.33;;;;;;;;;;4985009;28;20416;-77
2023/09/03 11:50:26;;;;;;;15.80;2.70;;;;;;;;;;4985173;28;20484;-78
2023/09/03 11:52:56;;;;;;;14.80;2.40;;;;;;;;;;4990812;28;20422;-76
2023/09/03 11:55:25;;;;;;;15.88;3.28;;;;;;;;;;4981632;28;20492;-77
2023/09/03 11:57:53;;;;;;;15.00;2.60;;;;;;;;;;4988543;28;20464;-76
2023/09/03 12:00:20;;;;;;;15.82;2.70;;;;;;;;;;4987193;28;20425;-77
2023/09/03 12:02:48;;;;;;;15.90;2.90;;;;;;;;;;4983977;28;20392;-77
2023/09/03 12:05:15;;;;;;;14.50;2.17;;;;;;;;;;4992234;28;21012;-79
2023/09/03 12:07:42;;;;;;;15.60;3.08;;;;;;;;;;4988904;28;20579;-75
2023/09/03 12:10:09;;;;;;;15.07;2.50;;;;;;;;;;5014542;28;20432;-75
2023/09/03 12:12:36;;;;;;;15.70;2.60;;;;;;;;;;5014907;28;20430;-76
2023/09/03 12:15:16;;;;;;;15.60;3.10;;;;;;;;;;4981241;28;20422;-77
2023/09/03 12:17:42;;;;;;;14.90;2.80;;;;;;;;;;4980446;28;20521;-77
2023/09/03 12:20:29;;;;;;;15.57;2.92;;;;;;;;;;4999603;28;20737;-78
2023/09/03 12:23:06;;;;;;;14.88;2.47;;;;;;;;;;4982984;28;20461;-78
2023/09/03 12:25:33;;;;;;;14.87;2.70;;;;;;;;;;4984492;28;20412;-77
2023/09/03 12:28:00;;;;;;;15.80;2.60;;;;;;;;;;5000516;28;20416;-77
2023/09/03 12:30:26;;;;;;;14.88;2.50;;;;;;;;;;4992639;28;20466;-78
2023/09/03 12:32:54;;;;;;;15.50;2.60;;;;;;;;;;5022975;28;20418;-77
2023/09/03 12:35:22;;;;;;;15.13;2.55;;;;;;;;;;4990414;28;20445;-78
2023/09/03 12:37:49;;;;;;;15.50;3.05;;;;;;;;;;4990699;28;20452;-77
2023/09/03 12:40:16;;;;;;;15.57;2.72;;;;;;;;;;4972951;28;20420;-79
2023/09/03 12:42:42;;;;;;;15.30;2.78;;;;;;;;;;4986094;28;20406;-77
2023/09/03 12:45:10;;;;;;;15.23;2.50;;;;;;;;;;4985358;28;20419;-78
2023/09/03 12:47:36;;;;;;;15.70;2.80;;;;;;;;;;4989845;28;20420;-79
2023/09/03 12:50:03;;;;;;;17.80;2.70;;;;;;;;;;4992173;28;20522;-76
2023/09/03 12:52:31;;;;;;;15.05;2.75;;;;;;;;;;4990607;28;20455;-81
2023/09/03 12:54:58;;;;;;;16.20;2.97;;;;;;;;;;4986896;28;20495;-78
2023/09/03 12:57:29;;;;;;;15.40;2.80;;;;;;;;;;4989337;28;20423;-77
2023/09/03 12:59:58;;;;;;;15.68;2.80;;;;;;;;;;4987307;28;20423;-76
2023/09/03 13:02:25;;;;;;;15.77;2.80;;;;;;;;;;4982612;28;20766;-76
2023/09/03 13:04:52;;;;;;;17.00;2.42;;;;;;;;;;4982163;28;20519;-78
2023/09/03 13:07:19;;;;;;;14.70;2.30;;;;;;;;;;4985725;28;20438;-76
2023/09/03 13:09:47;;;;;;;15.60;2.28;;;;;;;;;;4978490;28;20861;-75
2023/09/03 13:12:14;;;;;;;14.90;2.80;;;;;;;;;;4988501;28;20424;-76
2023/09/03 13:14:41;;;;;;;14.50;2.10;;;;;;;;;;4985749;28;20442;-76
2023/09/03 13:17:07;;;;;;;15.45;2.80;;;;;;;;;;4989970;28;20480;-76
2023/09/03 13:19:34;;;;;;;15.88;2.80;;;;;;;;;;4982542;28;20422;-75
2023/09/03 13:22:01;;;;;;;14.80;2.60;;;;;;;;;;4981450;28;20403;-76
2023/09/03 13:24:27;;;;;;;14.32;2.20;;;;;;;;;;4983548;28;20416;-75
2023/09/03 13:26:56;;;;;;;14.80;2.10;;;;;;;;;;4989555;28;20506;-77
2023/09/03 13:29:22;;;;;;;16.50;2.10;;;;;;;;;;4984820;28;20414;-77
2023/09/03 13:31:49;;;;;;;14.63;2.00;;;;;;;;;;5012173;28;20412;-77
2023/09/03 13:34:16;;;;;;;14.93;2.00;;;;;;;;;;4982455;28;20428;-76
2023/09/03 13:36:43;;;;;;;14.50;2.30;;;;;;;;;;4983076;28;20427;-77
2023/09/03 13:39:10;;;;;;;15.38;2.10;;;;;;;;;;4984980;28;20492;-76
2023/09/03 13:41:36;;;;;;;14.93;2.38;;;;;;;;;;4990139;28;20422;-78
2023/09/03 13:44:04;;;;;;;15.65;2.15;;;;;;;;;;4983921;28;20963;-76
2023/09/03 13:46:32;;;;;;;14.82;2.50;;;;;;;;;;4984008;28;20420;-75
2023/09/03 13:48:59;;;;;;;15.00;2.30;;;;;;;;;;4979192;28;20772;-77
2023/09/03 13:51:26;;;;;;;16.75;2.50;;;;;;;;;;4981766;28;20418;-76
2023/09/03 13:53:55;;;;;;;15.00;2.50;;;;;;;;;;4981459;28;20918;-76
2023/09/03 13:56:22;;;;;;;15.20;2.60;;;;;;;;;;4978034;28;20486;-76
2023/09/03 13:58:49;;;;;;;14.60;2.35;;;;;;;;;;4982096;28;20411;-76
2023/09/03 14:01:17;;;;;;;15.00;2.42;;;;;;;;;;4967714;28;20599;-76
2023/09/03 14:03:47;;;;;;;14.77;2.40;;;;;;;;;;4979046;28;20559;-77
2023/09/03 14:06:13;;;;;;;15.48;2.50;;;;;;;;;;4981894;28;20446;-76
2023/09/03 14:08:40;;;;;;;15.57;2.50;;;;;;;;;;4984740;28;20507;-78
2023/09/03 14:11:06;;;;;;;14.40;2.20;;;;;;;;;;4981845;28;20414;-75
2023/09/03 14:13:33;;;;;;;14.90;2.50;;;;;;;;;;4981763;28;20456;-75
2023/09/03 14:16:00;;;;;;;15.77;2.58;;;;;;;;;;4982424;28;20420;-76
2023/09/03 14:18:28;;;;;;;15.48;2.70;;;;;;;;;;5016303;28;20522;-77
2023/09/03 14:20:55;;;;;;;15.00;2.33;;;;;;;;;;4988554;28;20525;-76
2023/09/03 14:23:23;;;;;;;14.80;2.60;;;;;;;;;;4963868;28;20479;-77
2023/09/03 14:25:50;;;;;;;15.43;2.63;;;;;;;;;;4991166;28;20449;-77
2023/09/03 14:28:17;;;;;;;15.38;2.60;;;;;;;;;;4985603;28;20532;-75